LEIB/IBZ METAR and TAF weather

Enter ICAO airport designator
Station Type Date Time Source
LEIB METAR 2019/02/21 12:30 UTC NOAA

LEIB 211230Z 09005KT 050V140 9999 SCT025 16/10 Q1030 NOSIG


Station Type Date Time Source
LEIB Decoded METAR 2019/02/21 12:30 UTC NOAA

Ibiza / Es Codola, Spain (LEIB) 38-52N 001-23E 12M
Feb 21, 2019 - 07:30 AM EST / 2019.02.21 1230 UTC
Wind: from the E (090 degrees) at 6 MPH (5 KT) (direction variable):0
Visibility: greater than 7 mile(s):0
Sky conditions: partly cloudy
Temperature: 60 F (16 C)
Dew Point: 50 F (10 C)
Relative Humidity: 67%
Pressure (altimeter): 30.42 in. Hg (1030 hPa)
ob: LEIB 211230Z 09005KT 050V140 9999 SCT025 16/10 Q1030 NOSIG
cycle: 12

Station Type Date Time Source
LEIB TAF 2019/02/21 09:29 UTC NOAA

TAF LEIB 210800Z 2109/2209 01007KT 9999 SCT020 TX15/2112Z TN06/2206Z
BECMG 2109/2110 10007KT
BECMG 2120/2122 32006KT


Example: see airport list